Terminal Aerodrome Forecast
Issued by NWS

Current Version | Previous Version | Text Only | Print | Product List | Glossary On
Versions: 1 2 3 4 5 6 7 8 9 10 11 12 13 14 15 16 17 18 19
000
FTUS41 KBGM 020838 AAB
TAFITH
TAF AMD
KITH 020838Z 0209/0306 00000KT P6SM BKN018 OVC028
      TEMPO 0209/0213 SCT018 BKN028
     FM021300 32003KT P6SM BKN040
     FM021600 33009KT P6SM BKN050
     FM022100 32005KT P6SM SCT060
     FM022300 34003KT P6SM SKC=

USA.gov is the U.S. government's official web portal to all federal, state and local government web resources and services.